Time;durP1;ratioP1;P1;durP2;ratioP2;P2;SDS_P1;SDS_P2;PMS_P1;PMS_P2;Temp;Humidity;BMP_temperature;BMP_pressure;BME280_temperature;BME280_humidity;BME280_pressure;Samples;Min_cycle;Max_cycle;Signal;HPM_P1;HPM_P2
2022/02/27 00:00:11;;;;;;;9.29;8.51;;;;;;;3.19;61.23;101561.48;462409;114;930600;-74
2022/02/27 00:01:20;;;;;;;9.24;8.48;;;;;;;3.20;61.27;101563.16;458370;114;922596;-73
2022/02/27 00:02:24;;;;;;;9.62;8.82;;;;;;;3.22;61.32;101562.03;460475;114;922584;-73
2022/02/27 00:03:27;;;;;;;9.78;9.04;;;;;;;3.25;61.46;101564.43;459747;113;922607;-74
2022/02/27 00:04:30;;;;;;;9.66;8.90;;;;;;;3.29;61.42;101563.17;460939;114;930622;-74
2022/02/27 00:05:34;;;;;;;9.17;8.47;;;;;;;3.34;61.39;101557.34;458640;114;922603;-74
2022/02/27 00:06:37;;;;;;;10.36;9.42;;;;;;;3.36;61.34;101555.37;460723;114;930635;-74
2022/02/27 00:07:40;;;;;;;9.94;9.13;;;;;;;3.39;61.25;101565.84;458701;114;922579;-73
2022/02/27 00:08:45;;;;;;;9.78;8.94;;;;;;;3.40;61.16;101567.55;458533;114;923072;-74
2022/02/27 00:09:48;;;;;;;9.78;8.98;;;;;;;3.43;61.21;101569.95;460866;114;922567;-74
2022/02/27 00:10:52;;;;;;;10.65;9.85;;;;;;;3.44;61.05;101568.95;461159;114;922995;-74
2022/02/27 00:11:55;;;;;;;9.26;8.48;;;;;;;3.44;60.90;101568.95;457827;114;923342;-74
2022/02/27 00:12:58;;;;;;;9.51;8.74;;;;;;;3.46;60.93;101576.91;458407;114;922489;-74
2022/02/27 00:14:01;;;;;;;11.01;10.07;;;;;;;3.43;60.95;101569.95;460476;114;930563;-74
2022/02/27 00:15:05;;;;;;;9.61;8.81;;;;;;;3.42;60.81;101579.02;460841;114;923324;-76
2022/02/27 00:16:09;;;;;;;9.76;8.96;;;;;;;3.44;61.06;101571.65;459353;114;930715;-74
2022/02/27 00:17:13;;;;;;;10.97;10.03;;;;;;;3.45;60.98;101584.14;460301;114;922885;-74
2022/02/27 00:18:16;;;;;;;10.05;9.27;;;;;;;3.44;60.93;101574.34;460745;114;922984;-74
2022/02/27 00:19:21;;;;;;;9.78;9.02;;;;;;;3.44;60.99;101584.28;459252;113;922570;-74
2022/02/27 00:20:25;;;;;;;10.88;10.04;;;;;;;3.41;60.79;101580.04;461884;114;922615;-75
2022/02/27 00:21:30;;;;;;;9.74;8.97;;;;;;;3.38;60.79;101571.38;460815;114;922524;-74
2022/02/27 00:22:35;;;;;;;11.52;10.52;;;;;;;3.35;60.95;101583.31;460910;113;923095;-74
2022/02/27 00:23:39;;;;;;;10.64;9.75;;;;;;;3.32;60.99;101578.19;459319;114;922641;-74
2022/02/27 00:24:42;;;;;;;10.25;9.42;;;;;;;3.30;61.07;101572.11;459790;114;922643;-73
2022/02/27 00:25:45;;;;;;;10.82;9.98;;;;;;;3.28;61.20;101576.78;461357;114;922625;-74
2022/02/27 00:26:51;;;;;;;10.55;9.67;;;;;;;3.28;61.31;101579.48;458127;114;922483;-74
2022/02/27 00:27:54;;;;;;;9.77;9.00;;;;;;;3.29;61.33;101575.80;460138;114;922551;-74
2022/02/27 00:29:00;;;;;;;10.34;9.51;;;;;;;3.28;61.43;101576.78;458814;114;930468;-75
2022/02/27 00:30:05;;;;;;;10.88;10.06;;;;;;;3.28;61.47;101569.55;458880;113;922561;-74
2022/02/27 00:31:08;;;;;;;10.18;9.37;;;;;;;3.29;61.49;101578.48;457979;114;923235;-74
2022/02/27 00:32:12;;;;;;;10.99;10.10;;;;;;;3.30;61.53;101567.58;460062;113;922788;-73
2022/02/27 00:33:16;;;;;;;10.42;9.59;;;;;;;3.32;61.49;101575.49;459368;114;922587;-74
2022/02/27 00:34:19;;;;;;;10.53;9.73;;;;;;;3.33;61.46;101579.89;459855;114;923135;-74
2022/02/27 00:35:23;;;;;;;10.20;9.40;;;;;;;3.32;61.57;101570.10;461914;114;922546;-74
2022/02/27 00:36:26;;;;;;;11.22;10.31;;;;;;;3.33;61.58;101571.81;459323;113;930741;-74
2022/02/27 00:37:32;;;;;;;10.76;9.87;;;;;;;3.35;61.59;101572.53;459839;114;923003;-74
2022/02/27 00:38:35;;;;;;;10.28;9.42;;;;;;;3.36;61.58;101571.54;461668;114;922659;-74
2022/02/27 00:39:38;;;;;;;10.83;9.89;;;;;;;3.37;61.60;101578.61;460600;113;922627;-75
2022/02/27 00:40:42;;;;;;;10.59;9.77;;;;;;;3.37;61.49;101570.52;460552;114;922515;-73
2022/02/27 00:41:46;;;;;;;10.02;9.12;;;;;;;3.36;61.52;101574.23;463361;114;922425;-73
2022/02/27 00:42:49;;;;;;;10.13;9.31;;;;;;;3.36;61.63;101566.15;462726;114;922518;-74
2022/02/27 00:43:54;;;;;;;9.67;8.91;;;;;;;3.38;61.67;101574.92;458249;114;922934;-74
2022/02/27 00:44:58;;;;;;;10.70;9.81;;;;;;;3.40;61.60;101570.25;460989;114;922546;-74
2022/02/27 00:46:01;;;;;;;10.23;9.41;;;;;;;3.41;61.50;101580.04;460025;114;922557;-74
2022/02/27 00:47:05;;;;;;;10.95;10.06;;;;;;;3.40;61.51;101574.78;459818;113;930600;-75
2022/02/27 00:48:08;;;;;;;10.04;9.23;;;;;;;3.40;61.51;101577.48;458855;113;923336;-74
2022/02/27 00:49:11;;;;;;;10.82;9.94;;;;;;;3.40;61.53;101581.03;461533;113;922636;-74
2022/02/27 00:50:16;;;;;;;9.47;8.68;;;;;;;3.38;61.48;101582.16;457111;114;922471;-74
2022/02/27 00:51:20;;;;;;;9.94;9.16;;;;;;;3.33;61.41;101572.66;460421;114;922605;-74
2022/02/27 00:52:23;;;;;;;10.59;9.75;;;;;;;3.29;61.47;101575.80;457203;114;930512;-74
2022/02/27 00:53:26;;;;;;;10.44;9.59;;;;;;;3.23;61.49;101576.36;460808;114;922519;-75
2022/02/27 00:54:29;;;;;;;9.63;8.82;;;;;;;3.18;61.69;101581.33;459899;113;930522;-74
2022/02/27 00:55:33;;;;;;;10.23;9.21;;;;;;;3.13;61.79;101576.37;458276;114;922503;-74
2022/02/27 00:56:36;;;;;;;9.39;8.55;;;;;;;3.10;61.95;101570.40;460529;114;922452;-75
2022/02/27 00:57:40;;;;;;;8.81;8.11;;;;;;;3.09;62.07;101576.81;459123;114;930905;-74
2022/02/27 00:58:46;;;;;;;9.60;8.79;;;;;;;3.07;62.08;101581.48;458666;113;931627;-73
2022/02/27 00:59:48;;;;;;;9.49;8.73;;;;;;;3.02;62.25;101581.91;461728;114;922594;-74
2022/02/27 01:00:52;;;;;;;10.23;9.40;;;;;;;3.02;62.28;101575.66;450708;116;922703;-75
2022/02/27 01:01:55;;;;;;;9.29;8.40;;;;;;;3.01;62.37;101569.42;449410;114;922646;-75
2022/02/27 01:02:59;;;;;;;9.86;9.01;;;;;;;3.00;62.47;101575.80;461180;114;931133;-74
2022/02/27 01:04:04;;;;;;;9.74;8.82;;;;;;;3.00;62.50;101574.95;460680;114;922673;-74
2022/02/27 01:05:07;;;;;;;9.28;8.53;;;;;;;3.01;62.60;101574.81;457551;113;930630;-74
2022/02/27 01:06:12;;;;;;;10.00;9.21;;;;;;;3.03;62.72;101574.68;458735;114;930476;-74
2022/02/27 01:07:17;;;;;;;9.78;8.92;;;;;;;3.02;62.62;101571.13;459332;114;922430;-74
2022/02/27 01:08:20;;;;;;;9.76;8.96;;;;;;;3.03;62.67;101571.98;459537;113;922942;-74
2022/02/27 01:09:23;;;;;;;9.92;9.12;;;;;;;3.04;62.69;101568.27;459962;113;926316;-74
2022/02/27 01:10:26;;;;;;;9.95;9.04;;;;;;;3.02;62.75;101570.28;459631;114;922586;-74
2022/02/27 01:11:32;;;;;;;10.12;9.22;;;;;;;3.00;62.78;101567.72;461443;114;922529;-75
2022/02/27 01:12:35;;;;;;;9.57;8.81;;;;;;;2.98;62.77;101575.08;461600;114;923000;-73
2022/02/27 01:13:39;;;;;;;9.17;8.39;;;;;;;2.96;62.83;101576.23;460095;114;922594;-74
2022/02/27 01:14:43;;;;;;;9.05;8.34;;;;;;;2.93;62.96;101580.04;449446;116;922651;-74
2022/02/27 01:15:46;;;;;;;9.41;8.51;;;;;;;2.93;63.03;101585.43;450873;113;922744;-74
2022/02/27 01:16:50;;;;;;;10.20;9.33;;;;;;;2.91;63.05;101582.90;458568;113;923165;-74
2022/02/27 01:17:53;;;;;;;10.09;9.14;;;;;;;2.91;63.17;101577.52;459652;114;922432;-74
2022/02/27 01:18:57;;;;;;;9.83;8.96;;;;;;;2.89;63.28;101587.56;460259;114;923562;-75
2022/02/27 01:20:00;;;;;;;9.05;8.19;;;;;;;2.87;63.28;101588.69;458203;114;923168;-74
2022/02/27 01:21:03;;;;;;;9.03;8.25;;;;;;;2.85;63.33;101580.77;458396;113;922573;-74
2022/02/27 01:22:07;;;;;;;9.21;8.41;;;;;;;2.84;63.49;101578.20;458764;114;922541;-74
2022/02/27 01:23:11;;;;;;;9.74;8.78;;;;;;;2.85;63.55;101578.07;459667;113;922544;-74
2022/02/27 01:24:16;;;;;;;9.04;8.23;;;;;;;2.88;63.60;101590.39;459229;114;923114;-74
2022/02/27 01:25:19;;;;;;;9.55;8.81;;;;;;;2.89;63.51;101592.09;460116;114;922679;-75
2022/02/27 01:26:25;;;;;;;9.78;8.98;;;;;;;2.88;63.61;101587.70;457175;114;930542;-73
2022/02/27 01:27:28;;;;;;;9.26;8.49;;;;;;;2.86;63.48;101590.55;458912;114;922907;-74
2022/02/27 01:28:32;;;;;;;10.32;9.38;;;;;;;2.85;63.53;101580.77;459808;113;922649;-74
2022/02/27 01:29:35;;;;;;;9.35;8.41;;;;;;;2.85;63.68;101582.61;460286;114;922564;-74
2022/02/27 01:30:38;;;;;;;9.15;8.42;;;;;;;2.83;63.75;101585.43;458360;113;922843;-73
2022/02/27 01:31:42;;;;;;;9.28;8.53;;;;;;;2.83;63.70;101579.19;459598;114;922919;-74
2022/02/27 01:32:45;;;;;;;9.01;8.21;;;;;;;2.80;63.64;101584.88;457815;114;922624;-74
2022/02/27 01:33:49;;;;;;;9.49;8.69;;;;;;;2.77;63.68;101588.68;458316;114;922506;-74
2022/02/27 01:34:53;;;;;;;9.34;8.56;;;;;;;2.74;63.75;101586.28;459598;114;922559;-75
2022/02/27 01:35:56;;;;;;;9.58;8.65;;;;;;;2.73;63.87;101583.72;461284;114;922474;-74
2022/02/27 01:36:59;;;;;;;9.35;8.65;;;;;;;2.69;63.94;101588.55;460159;114;923188;-74
2022/02/27 01:38:02;;;;;;;9.73;8.93;;;;;;;2.67;64.06;101593.20;459571;113;922903;-74
2022/02/27 01:39:05;;;;;;;9.25;8.48;;;;;;;2.65;64.20;101605.95;459833;114;922988;-74
2022/02/27 01:40:09;;;;;;;10.33;9.37;;;;;;;2.62;64.19;101590.08;463732;114;922625;-74
2022/02/27 01:41:13;;;;;;;9.91;9.11;;;;;;;2.59;64.27;101593.06;460981;114;922893;-74
2022/02/27 01:42:18;;;;;;;10.71;9.81;;;;;;;2.55;64.44;101599.69;461138;113;922606;-74
2022/02/27 01:43:21;;;;;;;9.68;8.88;;;;;;;2.51;64.47;101598.27;459928;114;922622;-74
2022/02/27 01:44:26;;;;;;;9.76;8.96;;;;;;;2.51;64.62;101599.13;458929;114;923456;-74
2022/02/27 01:45:29;;;;;;;9.50;8.66;;;;;;;2.51;64.69;101600.97;459172;114;922366;-74
2022/02/27 01:46:34;;;;;;;9.72;8.80;;;;;;;2.50;64.78;101597.42;458946;114;923203;-73
2022/02/27 01:47:37;;;;;;;10.73;9.77;;;;;;;2.51;64.84;101600.97;461503;114;922590;-74
2022/02/27 01:48:40;;;;;;;10.01;9.03;;;;;;;2.52;64.91;101599.98;459956;114;922820;-74
2022/02/27 01:49:45;;;;;;;10.16;9.23;;;;;;;2.51;64.94;101601.82;459390;114;923008;-75
2022/02/27 01:50:49;;;;;;;10.12;9.27;;;;;;;2.50;64.98;101608.19;460961;114;922446;-76
2022/02/27 01:51:54;;;;;;;9.02;8.18;;;;;;;2.48;65.01;101604.77;448463;116;922701;-75
2022/02/27 01:52:57;;;;;;;9.35;8.56;;;;;;;2.49;65.14;101606.48;450775;114;922670;-74
2022/02/27 01:54:01;;;;;;;9.56;8.79;;;;;;;2.48;65.22;101596.70;458632;114;922639;-74
2022/02/27 01:55:05;;;;;;;9.93;9.11;;;;;;;2.49;65.15;101601.09;459348;114;930565;-74
2022/02/27 01:56:12;;;;;;;10.71;9.70;;;;;;;2.48;65.25;101594.00;459682;113;922672;-74
2022/02/27 01:57:19;;;;;;;9.35;8.57;;;;;;;2.50;65.34;101601.95;458425;114;922722;-74
2022/02/27 01:58:22;;;;;;;11.59;9.86;;;;;;;2.50;65.38;101602.80;460159;114;922534;-73
2022/02/27 01:59:26;;;;;;;9.38;8.56;;;;;;;2.52;65.37;101599.98;462080;114;922613;-73
2022/02/27 02:00:30;;;;;;;9.59;8.72;;;;;;;2.54;65.42;101597.98;458192;113;922705;-74
2022/02/27 02:01:34;;;;;;;8.87;8.07;;;;;;;2.58;65.46;101601.27;458447;114;922485;-74
2022/02/27 02:02:38;;;;;;;8.89;8.17;;;;;;;2.62;65.41;101611.62;459047;114;922647;-74
2022/02/27 02:03:41;;;;;;;9.95;9.04;;;;;;;2.66;65.39;101604.96;458697;114;922799;-74
2022/02/27 02:04:45;;;;;;;9.69;8.84;;;;;;;2.70;65.36;101611.77;459653;114;922637;-75
2022/02/27 02:05:49;;;;;;;10.04;9.11;;;;;;;2.73;65.32;101614.20;459836;113;922620;-74
2022/02/27 02:06:52;;;;;;;11.68;9.42;;;;;;;2.75;65.11;101609.53;459895;114;923341;-75
2022/02/27 02:07:55;;;;;;;9.88;9.01;;;;;;;2.77;65.03;101612.06;458274;114;930392;-75
2022/02/27 02:08:59;;;;;;;10.01;9.15;;;;;;;2.78;64.96;101614.62;457305;114;923785;-73
2022/02/27 02:10:03;;;;;;;9.66;8.86;;;;;;;2.80;64.90;101619.88;459732;113;922598;-73
2022/02/27 02:11:06;;;;;;;9.82;8.93;;;;;;;2.80;64.91;101623.43;459549;114;922578;-74
2022/02/27 02:12:11;;;;;;;9.74;8.93;;;;;;;2.82;64.94;101626.81;459818;114;922733;-74
2022/02/27 02:13:15;;;;;;;8.78;8.06;;;;;;;2.85;64.94;101628.39;460655;114;923024;-74
2022/02/27 02:14:20;;;;;;;8.66;7.96;;;;;;;2.87;64.89;101621.00;458726;114;922964;-74
2022/02/27 02:15:24;;;;;;;8.96;8.15;;;;;;;2.89;64.83;101627.97;457022;114;922646;-74
2022/02/27 02:16:44;;;;;;;8.99;8.25;;;;;;;2.91;64.82;101623.30;460237;114;923349;-74
2022/02/27 02:17:48;;;;;;;8.51;7.81;;;;;;;2.92;64.84;101627.67;460229;114;922531;-75
2022/02/27 02:18:52;;;;;;;9.24;8.44;;;;;;;2.94;64.75;101627.55;459490;114;930575;-75
2022/02/27 02:19:56;;;;;;;9.48;8.53;;;;;;;2.96;64.70;101630.96;458135;113;923113;-75
2022/02/27 02:20:59;;;;;;;9.48;8.44;;;;;;;2.99;64.72;101632.50;456600;114;922579;-74
2022/02/27 02:22:04;;;;;;;10.09;9.16;;;;;;;3.01;64.68;101634.08;457287;114;923103;-75
2022/02/27 02:23:08;;;;;;;9.16;8.46;;;;;;;3.04;64.57;101641.02;458654;114;922724;-74
2022/02/27 02:24:13;;;;;;;8.74;8.03;;;;;;;3.06;64.48;101645.28;450092;116;922664;-74
2022/02/27 02:25:16;;;;;;;8.47;7.74;;;;;;;3.07;64.40;101638.91;452915;114;930700;-74
2022/02/27 02:26:22;;;;;;;8.58;7.93;;;;;;;3.09;64.28;101636.09;459628;114;930499;-74
2022/02/27 02:27:26;;;;;;;9.02;8.22;;;;;;;3.09;64.26;101641.48;459477;114;923600;-75
2022/02/27 02:28:29;;;;;;;7.76;7.16;;;;;;;3.10;64.21;101638.62;461297;114;922599;-74
2022/02/27 02:29:33;;;;;;;9.18;8.26;;;;;;;3.10;64.15;101635.92;450105;116;922931;-74
2022/02/27 02:30:38;;;;;;;9.81;8.79;;;;;;;3.11;64.09;101634.08;450608;114;930615;-73
2022/02/27 02:31:42;;;;;;;8.30;7.60;;;;;;;3.11;64.02;101632.24;459655;114;922508;-74
2022/02/27 02:32:53;;;;;;;8.65;7.88;;;;;;;3.12;63.87;101642.03;450016;116;922559;-73
2022/02/27 02:33:57;;;;;;;8.12;7.47;;;;;;;3.14;63.82;101637.34;450915;114;922651;-74
2022/02/27 02:35:01;;;;;;;8.03;7.37;;;;;;;3.12;63.80;101636.64;457097;114;922875;-73
2022/02/27 02:36:06;;;;;;;8.16;7.41;;;;;;;3.12;63.84;101636.64;461045;114;930541;-74
2022/02/27 02:37:11;;;;;;;8.03;7.30;;;;;;;3.13;63.76;101646.44;458842;113;922664;-74
2022/02/27 02:38:14;;;;;;;8.04;7.38;;;;;;;3.15;63.59;101635.49;459880;113;922762;-74
2022/02/27 02:39:20;;;;;;;7.53;6.93;;;;;;;3.15;63.67;101636.34;459193;114;930965;-74
2022/02/27 02:40:25;;;;;;;7.60;6.99;;;;;;;3.15;63.59;101630.95;459200;113;922596;-75
2022/02/27 02:41:30;;;;;;;7.86;7.14;;;;;;;3.16;63.43;101632.67;457510;114;923131;-75
2022/02/27 02:42:45;;;;;;;8.31;7.61;;;;;;;3.16;63.44;101640.75;458690;114;922893;-76
2022/02/27 02:43:48;;;;;;;8.03;6.89;;;;;;;3.15;63.31;101630.95;459648;113;923284;-74
2022/02/27 02:44:52;;;;;;;7.67;7.07;;;;;;;3.15;63.41;101632.80;459345;114;922613;-74
2022/02/27 02:45:55;;;;;;;8.36;7.56;;;;;;;3.17;63.50;101636.22;459598;114;930519;-74
2022/02/27 02:47:00;;;;;;;7.74;7.04;;;;;;;3.20;63.59;101633.22;458930;114;922936;-74
2022/02/27 02:48:04;;;;;;;6.19;5.74;;;;;;;3.24;63.61;101638.22;457393;114;922828;-74
2022/02/27 02:49:10;;;;;;;7.12;6.51;;;;;;;3.27;63.34;101637.06;460978;114;922553;-74
2022/02/27 02:50:22;;;;;;;6.32;5.78;;;;;;;3.30;63.11;101644.88;458417;114;922473;-75
2022/02/27 02:51:26;;;;;;;6.18;5.68;;;;;;;3.30;63.08;101644.88;457703;114;922836;-74
2022/02/27 02:52:29;;;;;;;6.83;6.04;;;;;;;3.31;63.13;101647.41;460197;113;922461;-75
2022/02/27 02:53:35;;;;;;;6.48;5.74;;;;;;;3.32;62.98;101643.73;462420;113;930517;-75
2022/02/27 02:54:38;;;;;;;6.98;6.35;;;;;;;3.34;62.96;101638.20;461307;113;930605;-74
2022/02/27 02:55:42;;;;;;;7.21;6.51;;;;;;;3.35;62.70;101643.47;459806;114;922619;-73
2022/02/27 02:56:45;;;;;;;7.03;5.88;;;;;;;3.35;62.47;101650.70;457850;114;922909;-74
2022/02/27 02:57:48;;;;;;;6.84;5.95;;;;;;;3.33;62.58;101649.98;460862;114;922576;-75
2022/02/27 02:58:52;;;;;;;6.31;5.81;;;;;;;3.32;62.40;101657.20;459443;113;922678;-74
2022/02/27 02:59:55;;;;;;;6.87;5.68;;;;;;;3.30;62.19;101642.19;461240;114;922582;-75
2022/02/27 03:00:58;;;;;;;6.01;5.49;;;;;;;3.27;62.10;101654.09;460588;114;924070;-71
2022/02/27 03:02:03;;;;;;;6.15;5.64;;;;;;;3.25;62.17;101653.37;458322;113;922726;-73
2022/02/27 03:03:06;;;;;;;6.49;5.95;;;;;;;3.22;62.20;101648.27;458107;113;923067;-73
2022/02/27 03:04:10;;;;;;;6.64;6.09;;;;;;;3.20;62.24;101650.25;460658;114;922530;-72
2022/02/27 03:05:13;;;;;;;6.32;5.80;;;;;;;3.18;62.25;101656.79;457399;114;923680;-72
2022/02/27 03:06:18;;;;;;;6.51;5.96;;;;;;;3.14;62.21;101653.50;459102;113;922571;-71
2022/02/27 03:07:21;;;;;;;6.63;6.06;;;;;;;3.12;62.39;101654.66;458888;114;931270;-72
2022/02/27 03:08:24;;;;;;;7.39;6.69;;;;;;;3.12;62.50;101652.81;459402;114;930646;-73
2022/02/27 03:09:27;;;;;;;6.90;5.97;;;;;;;3.13;62.50;101653.67;457981;114;922890;-73
2022/02/27 03:10:30;;;;;;;6.68;6.13;;;;;;;3.12;62.48;101655.50;459825;114;922792;-73
2022/02/27 03:11:33;;;;;;;5.78;5.25;;;;;;;3.11;62.40;101663.72;463660;114;923036;-72
2022/02/27 03:12:39;;;;;;;6.79;6.26;;;;;;;3.08;62.25;101654.09;460608;114;922620;-73
2022/02/27 03:13:43;;;;;;;6.28;5.73;;;;;;;3.06;62.34;101647.13;460280;113;922596;-74
2022/02/27 03:14:46;;;;;;;6.08;5.53;;;;;;;3.05;62.30;101651.66;461965;114;922559;-73
2022/02/27 03:15:49;;;;;;;6.42;5.87;;;;;;;3.04;62.33;101652.65;460863;114;923211;-75
2022/02/27 03:16:52;;;;;;;6.21;5.63;;;;;;;3.03;62.32;101655.50;458582;113;922930;-73
2022/02/27 03:17:56;;;;;;;6.67;6.09;;;;;;;2.99;62.33;101646.83;458906;114;922727;-70
2022/02/27 03:18:59;;;;;;;5.59;5.16;;;;;;;2.98;62.38;101655.08;461414;114;922538;-73
2022/02/27 03:20:03;;;;;;;5.31;4.83;;;;;;;2.97;62.48;101658.75;459858;114;922603;-72
2022/02/27 03:21:06;;;;;;;5.74;5.24;;;;;;;2.97;62.61;101658.75;459722;113;922787;-73
2022/02/27 03:22:09;;;;;;;6.06;5.56;;;;;;;2.98;62.45;101658.59;462168;114;930542;-71
2022/02/27 03:23:13;;;;;;;5.72;5.19;;;;;;;2.99;62.42;101662.99;457641;114;922916;-71
2022/02/27 03:24:16;;;;;;;5.67;4.85;;;;;;;3.01;62.45;101670.95;458943;114;922570;-73
2022/02/27 03:25:19;;;;;;;5.59;5.13;;;;;;;3.03;62.29;101667.14;460120;114;922560;-72
2022/02/27 03:26:22;;;;;;;5.77;5.31;;;;;;;3.04;62.22;101666.12;462848;114;922534;-72
2022/02/27 03:27:25;;;;;;;5.13;4.76;;;;;;;3.04;62.01;101668.81;460599;114;922890;-72
2022/02/27 03:28:28;;;;;;;5.74;5.19;;;;;;;3.04;61.73;101668.81;459039;114;923040;-74
2022/02/27 03:29:32;;;;;;;5.53;5.09;;;;;;;3.04;61.68;101676.05;457880;114;922506;-73
2022/02/27 03:30:38;;;;;;;5.84;5.39;;;;;;;3.04;61.75;101676.05;457826;114;922570;-72
2022/02/27 03:31:40;;;;;;;5.76;5.27;;;;;;;3.03;61.69;101669.83;448738;116;930507;-73
2022/02/27 03:32:50;;;;;;;5.47;4.97;;;;;;;3.03;61.71;101679.75;461322;114;922836;-73
2022/02/27 03:33:51;;;;;;;5.44;4.94;;;;;;;3.03;61.81;101677.06;460605;114;922413;-73
2022/02/27 03:34:54;;;;;;;6.28;5.66;;;;;;;3.01;61.88;101671.80;459335;113;922946;-73
2022/02/27 03:35:57;;;;;;;6.17;5.59;;;;;;;3.02;61.80;101669.96;460440;114;930553;-73
2022/02/27 03:37:00;;;;;;;6.55;6.03;;;;;;;3.01;61.77;101673.64;460613;114;922934;-73
2022/02/27 03:38:04;;;;;;;5.99;5.56;;;;;;;3.00;61.80;101669.23;460106;114;922935;-74
2022/02/27 03:39:07;;;;;;;5.42;5.03;;;;;;;2.98;61.80;101674.75;459566;114;922620;-73
2022/02/27 03:40:11;;;;;;;6.00;5.50;;;;;;;2.97;61.88;101674.92;463630;114;922602;-72
2022/02/27 03:41:14;;;;;;;7.71;6.08;;;;;;;2.97;61.96;101674.92;461446;114;922713;-73
2022/02/27 03:42:19;;;;;;;6.19;5.59;;;;;;;2.96;62.05;101674.06;457731;114;930510;-74
2022/02/27 03:43:22;;;;;;;6.43;5.86;;;;;;;2.99;61.97;101678.30;458838;114;930597;-72
2022/02/27 03:44:25;;;;;;;6.17;5.60;;;;;;;3.00;61.93;101680.02;461682;113;923318;-71
2022/02/27 03:45:28;;;;;;;6.47;5.97;;;;;;;3.02;61.92;101678.05;459159;113;922436;-73
2022/02/27 03:46:36;;;;;;;5.84;5.35;;;;;;;3.04;61.97;101674.20;460998;114;922681;-74
2022/02/27 03:47:36;;;;;;;6.50;5.90;;;;;;;3.08;62.00;101681.03;459176;114;922476;-72
2022/02/27 03:48:40;;;;;;;6.20;5.49;;;;;;;3.11;61.75;101680.74;460683;113;922621;-75
2022/02/27 03:49:43;;;;;;;6.00;5.50;;;;;;;3.15;61.54;101689.39;458713;113;923063;-73
2022/02/27 03:50:47;;;;;;;5.94;5.47;;;;;;;3.15;61.24;101684.00;459262;114;922592;-73
2022/02/27 03:51:52;;;;;;;6.35;5.88;;;;;;;3.15;60.97;101689.39;462425;114;922510;-71
2022/02/27 03:52:55;;;;;;;5.45;5.05;;;;;;;3.13;61.08;101691.39;458155;114;922813;-74
2022/02/27 03:53:58;;;;;;;5.94;5.44;;;;;;;3.13;61.10;101696.78;458953;114;922811;-74
2022/02/27 03:55:04;;;;;;;6.44;5.89;;;;;;;3.13;61.01;101694.09;461520;114;923277;-74
2022/02/27 03:56:08;;;;;;;5.86;5.41;;;;;;;3.12;61.08;101689.68;461411;114;922756;-73
2022/02/27 03:57:11;;;;;;;5.53;5.09;;;;;;;3.12;61.14;101686.98;459795;113;922937;-73
2022/02/27 03:58:14;;;;;;;6.66;6.17;;;;;;;3.13;61.20;101692.25;457611;114;923364;-72
2022/02/27 03:59:18;;;;;;;6.72;6.17;;;;;;;3.14;61.22;101685.84;462221;114;930482;-73
2022/02/27 04:00:24;;;;;;;6.54;6.04;;;;;;;3.15;61.22;101689.39;457473;114;922929;-73
2022/02/27 04:01:27;;;;;;;6.42;5.59;;;;;;;3.16;61.12;101686.56;457421;114;923089;-73
2022/02/27 04:02:31;;;;;;;6.31;5.78;;;;;;;3.17;61.04;101687.42;449647;116;922597;-73
2022/02/27 04:03:34;;;;;;;6.29;5.72;;;;;;;3.16;61.05;101685.70;451890;114;922805;-72
2022/02/27 04:04:38;;;;;;;6.67;6.09;;;;;;;3.16;61.13;101693.80;458815;114;922692;-73
2022/02/27 04:05:41;;;;;;;6.29;5.69;;;;;;;3.15;60.98;101692.94;459862;114;922701;-72
2022/02/27 04:06:44;;;;;;;6.48;5.98;;;;;;;3.13;60.69;101691.39;460015;113;923088;-72
2022/02/27 04:07:48;;;;;;;5.98;5.48;;;;;;;3.11;60.81;101701.45;460555;114;922919;-73
2022/02/27 04:08:51;;;;;;;6.04;5.54;;;;;;;3.08;60.95;101704.43;461994;114;922621;-73
2022/02/27 04:09:56;;;;;;;6.62;6.12;;;;;;;3.06;60.90;101704.56;458998;114;922692;-74
2022/02/27 04:10:59;;;;;;;5.59;5.11;;;;;;;3.05;61.01;101710.08;459290;114;922623;-72
2022/02/27 04:12:03;;;;;;;6.36;5.83;;;;;;;3.07;61.15;101718.89;450797;116;923110;-71
2022/02/27 04:13:06;;;;;;;5.89;5.41;;;;;;;3.09;60.98;101711.53;460034;114;922886;-70
2022/02/27 04:14:09;;;;;;;5.69;5.22;;;;;;;3.10;60.92;101721.30;459049;114;922783;-73
2022/02/27 04:15:12;;;;;;;5.82;5.33;;;;;;;3.10;60.90;101718.59;460132;114;922695;-72
2022/02/27 04:16:16;;;;;;;6.33;5.82;;;;;;;3.12;60.88;101720.18;459344;114;923825;-73
2022/02/27 04:17:19;;;;;;;5.62;5.12;;;;;;;3.13;60.78;101723.73;460332;114;922630;-73
2022/02/27 04:18:22;;;;;;;6.36;5.79;;;;;;;3.14;60.75;101726.26;458143;113;922609;-73
2022/02/27 04:19:25;;;;;;;5.97;5.42;;;;;;;3.16;60.76;101729.68;459488;114;923433;-73
2022/02/27 04:20:28;;;;;;;6.29;5.78;;;;;;;3.16;60.78;101716.20;461531;114;922605;-73
2022/02/27 04:21:32;;;;;;;5.86;5.40;;;;;;;3.17;60.87;101728.69;458489;114;922695;-73
2022/02/27 04:22:35;;;;;;;6.64;6.14;;;;;;;3.19;60.85;101729.42;462986;114;922508;-72
2022/02/27 04:23:38;;;;;;;7.00;6.34;;;;;;;3.22;60.86;101730.97;459716;114;922906;-74
2022/02/27 04:24:41;;;;;;;6.24;5.67;;;;;;;3.21;60.67;101726.56;458014;114;922597;-73
2022/02/27 04:25:44;;;;;;;6.21;5.72;;;;;;;3.20;60.69;101732.94;458557;114;922917;-73
2022/02/27 04:26:48;;;;;;;5.72;5.22;;;;;;;3.19;60.76;101728.56;458773;114;922599;-73
2022/02/27 04:27:53;;;;;;;6.26;5.69;;;;;;;3.18;60.87;101732.25;461343;114;923167;-72
2022/02/27 04:28:56;;;;;;;6.08;5.44;;;;;;;3.19;60.94;101724.03;458375;114;930516;-71
2022/02/27 04:29:59;;;;;;;6.08;5.58;;;;;;;3.22;60.98;101722.88;458617;114;922624;-74
2022/02/27 04:31:02;;;;;;;5.71;5.17;;;;;;;3.24;61.00;101732.55;461154;114;922966;-73
2022/02/27 04:32:06;;;;;;;5.37;4.96;;;;;;;3.25;60.65;101733.41;459707;114;922939;-72
2022/02/27 04:33:09;;;;;;;6.08;5.57;;;;;;;3.25;60.62;101728.02;456493;113;922553;-73
2022/02/27 04:34:12;;;;;;;6.12;5.47;;;;;;;3.24;60.60;101731.69;458153;114;930604;-71
2022/02/27 04:35:16;;;;;;;6.33;5.83;;;;;;;3.23;60.64;101741.62;458521;114;922599;-73
2022/02/27 04:36:20;;;;;;;5.71;5.21;;;;;;;3.22;60.59;101734.52;458446;113;923136;-74
2022/02/27 04:37:24;;;;;;;5.90;5.40;;;;;;;3.23;60.81;101733.53;458564;114;922611;-73
2022/02/27 04:38:27;;;;;;;5.86;5.40;;;;;;;3.26;60.86;101741.33;460791;114;922556;-73
2022/02/27 04:39:30;;;;;;;6.19;5.69;;;;;;;3.28;60.83;101733.11;461819;114;922839;-71
2022/02/27 04:40:33;;;;;;;4.98;4.58;;;;;;;3.31;60.62;101739.06;460684;114;922556;-72
2022/02/27 04:41:37;;;;;;;6.03;5.53;;;;;;;3.32;60.46;101737.22;459664;114;922560;-73
2022/02/27 04:42:41;;;;;;;5.49;5.05;;;;;;;3.32;60.42;101742.61;458770;114;922889;-72
2022/02/27 04:43:46;;;;;;;5.66;5.24;;;;;;;3.31;60.44;101741.75;459477;114;931177;-72
2022/02/27 04:44:50;;;;;;;5.54;5.04;;;;;;;3.32;60.29;101735.37;460595;113;922507;-73
2022/02/27 04:45:53;;;;;;;5.78;5.28;;;;;;;3.31;60.24;101744.45;463071;114;922864;-72
2022/02/27 04:46:56;;;;;;;6.21;5.67;;;;;;;3.32;60.19;101739.91;459279;113;922548;-72
2022/02/27 04:47:59;;;;;;;6.16;5.43;;;;;;;3.30;60.17;101745.47;461553;114;922552;-72
2022/02/27 04:49:02;;;;;;;5.46;5.01;;;;;;;3.30;60.23;101737.38;457293;114;922608;-74
2022/02/27 04:50:06;;;;;;;5.59;5.06;;;;;;;3.31;60.15;101738.20;449769;116;922715;-73
2022/02/27 04:51:09;;;;;;;5.68;5.02;;;;;;;3.31;60.03;101732.81;450209;116;923483;-71
2022/02/27 04:52:12;;;;;;;4.92;4.48;;;;;;;3.32;60.06;101739.91;450681;116;922583;-71
2022/02/27 04:53:15;;;;;;;5.11;4.71;;;;;;;3.32;59.62;101735.37;450788;116;922995;-72
2022/02/27 04:54:19;;;;;;;5.34;4.91;;;;;;;3.32;59.26;101734.52;452330;116;923202;-72
2022/02/27 04:55:22;;;;;;;5.06;4.66;;;;;;;3.27;59.10;101731.40;451003;116;922549;-74
2022/02/27 04:56:25;;;;;;;5.10;4.69;;;;;;;3.22;59.15;101734.52;453509;116;923298;-72